Latest Weather Observations for Argyle

IDD60801

Issued at 11:21 pm CST Sunday 17 February 2019 (issued every 10 minutes, with the page automatically refreshed every 10 minutes)

About weather observations | Map of weather stations | Latest weather observations for NT | Other Formats
Station Details ID: 002064 Name: ARGYLE AERODROME Lat: -16.64 Lon: 128.45 Height: 164.0 m
Data from the previous 72 hours. | See also: Recent months at Argyle
Date/Time
CST
Temp
°C
App
Temp
°C
Dew
Point
°C
Rel
Hum
%
Delta-T
°C
Wind Press
QNH
hPa
Press
MSL
hPa
Rain since
9am
mm
Dir  Spd
km/h
Gust
km/h
Spd
kts
Gust
kts
17/11:00pm 30.0 34.3 21.1 59 6.0 CALM 0 0 0 0 1010.3 1009.0 0.0
17/10:30pm 30.2 33.4 20.4 55 6.5 ENE 4 13 2 7 1010.7 1009.5 0.0
17/10:00pm 30.6 31.8 19.9 52 7.1 NNE 13 17 7 9 1010.8 1009.6 0.0
17/09:30pm 31.6 32.9 20.2 50 7.6 NE 13 19 7 10 1010.2 1008.9 0.0
17/09:00pm 32.1 32.2 20.0 48 8.1 SE 19 26 10 14 1009.9 1008.6 0.0
17/08:30pm 32.3 34.4 20.9 51 7.7 ENE 11 15 6 8 1009.2 1007.9 0.0
17/08:00pm 31.9 35.6 22.6 58 6.4 ENE 7 9 4 5 1008.7 1007.4 0.0
17/07:30pm 32.7 34.9 21.2 50 7.8 NE 11 15 6 8 1008.0 1006.7 0.0
17/07:00pm 35.0 36.0 18.6 38 10.8 N 11 13 6 7 1007.4 1006.1 0.0
17/06:30pm 36.1 35.9 17.7 33 12.0 N 15 19 8 10 1006.6 1005.3 0.0
17/06:00pm 36.4 35.8 17.5 32 12.3 N 17 20 9 11 1006.6 1005.3 0.0
17/05:30pm 36.7 35.8 17.8 32 12.4 N 19 22 10 12 1006.5 1005.2 0.0
17/05:00pm 36.8 36.1 17.4 32 12.6 N 17 20 9 11 1006.7 1005.4 0.0
17/04:30pm 37.3 38.0 18.8 33 12.3 N 13 20 7 11 1007.1 1005.8 0.0
17/04:00pm 36.5 37.3 19.0 35 11.6 N 13 20 7 11 1007.4 1006.1 0.0
17/03:30pm 36.5 37.1 18.6 35 11.9 N 13 20 7 11 1007.9 1006.6 0.0
17/03:00pm 36.1 36.5 19.1 36 11.3 N 15 22 8 12 1008.5 1007.2 0.0
17/02:30pm 35.7 36.6 20.0 39 10.6 N 15 24 8 13 1009.1 1007.8 0.0
17/02:00pm 35.6 36.4 19.9 39 10.5 N 15 20 8 11 1009.5 1008.2 0.0
17/01:30pm 34.9 36.4 20.5 43 9.7 N 13 19 7 10 1010.0 1008.7 0.0
17/01:00pm 34.8 36.0 20.0 42 9.9 N 13 19 7 10 1010.6 1009.3 0.0
17/12:30pm 33.9 36.0 21.0 47 8.7 N 11 17 6 9 1011.1 1009.9 0.0
17/12:00pm 32.8 34.5 21.0 50 8.0 NNE 13 20 7 11 1011.4 1010.2 0.0
17/11:30am 32.1 34.4 20.7 51 7.7 N 9 15 5 8 1011.9 1010.7 0.0
17/11:00am 31.4 33.9 21.0 54 7.0 N 9 15 5 8 1012.3 1011.0 0.0
17/10:30am 31.0 34.0 22.0 58 6.1 N 9 13 5 7 1012.5 1011.2 3.6
17/10:00am 30.3 32.5 20.5 55 6.5 N 9 13 5 7 1012.6 1011.3 3.6
17/09:30am 29.8 34.4 21.7 61 5.5 CALM 0 0 0 0 1012.5 1011.2 3.6
17/09:00am 28.8 33.2 21.3 64 5.0 CALM 0 0 0 0 1012.3 1011.0 3.6
17/08:30am 27.8 32.2 21.3 67 4.4 CALM 0 0 0 0 1012.1 1010.8 3.6
17/08:00am 26.9 31.9 22.5 77 3.0 CALM 0 0 0 0 1011.6 1010.4 3.6
17/07:30am 26.6 31.7 22.7 79 2.7 CALM 0 0 0 0 1011.3 1010.1 3.6
17/07:00am 26.5 31.6 22.6 79 2.6 CALM 0 0 0 0 1010.9 1009.7 3.6
17/06:30am 26.3 31.2 22.4 79 2.6 CALM 0 0 0 0 1010.7 1009.5 3.6
17/06:00am 26.2 31.2 22.5 80 2.5 CALM 0 0 0 0 1010.4 1009.1 3.6
17/05:30am 26.3 31.1 22.2 78 2.8 CALM 0 0 0 0 1010.1 1008.8 3.6
17/05:00am 26.2 31.1 22.3 79 2.6 CALM 0 0 0 0 1010.1 1008.8 3.6
17/04:30am 26.4 30.0 22.3 78 2.8 WSW 7 9 4 5 1010.2 1008.9 3.6
17/04:00am 26.2 29.1 21.8 77 3.0 WSW 9 11 5 6 1010.2 1008.9 3.6
17/03:30am 26.0 29.2 21.7 77 2.9 W 7 9 4 5 1010.0 1008.7 3.6
17/03:00am 26.8 29.8 20.9 70 3.9 W 6 7 3 4 1010.1 1008.8 3.6
17/02:30am 26.6 29.1 21.1 72 3.7 WNW 9 11 5 6 1010.3 1009.0 3.6
17/02:00am 26.8 29.0 21.1 71 3.8 NW 11 15 6 8 1010.7 1009.5 3.6
17/01:30am 27.0 28.6 20.8 69 4.1 NNW 13 17 7 9 1010.9 1009.7 3.6
17/01:00am 26.8 29.7 21.1 71 3.8 N 7 13 4 7 1011.1 1009.9 3.6
17/12:30am 25.8 27.5 21.0 75 3.2 N 13 19 7 10 1010.6 1009.3 3.6
17/12:00am 26.2 27.7 21.2 74 3.3 NNW 15 17 8 9 1010.7 1009.5 3.6
 
Date/Time
CST
Temp
°C
App
Temp
°C
Dew
Point
°C
Rel
Hum
%
Delta-T
°C
Wind Press
QNH
hPa
Press
MSL
hPa
Rain since
9am
mm
Dir  Spd
km/h
Gust
km/h
Spd
kts
Gust
kts
16/11:30pm 25.5 25.9 20.7 75 3.2 WNW 19 24 10 13 1011.1 1009.9 3.4
16/11:27pm 25.6 26.1 20.8 75 3.2 WNW 19 24 10 13 1011.1 - 3.4
16/11:00pm 24.8 23.9 20.7 78 2.7 NNW 26 32 14 17 1012.4 1011.1 3.4
16/10:44pm 24.5 25.1 21.4 83 2.1 WNW 20 28 11 15 1013.1 1011.8 3.4
16/10:30pm 23.6 21.5 20.5 83 2.0 WSW 32 44 17 24 1013.8 1012.5 3.2
16/10:21pm 24.9 21.9 20.6 77 2.8 SW 37 50 20 27 1013.9 1012.6 1.8
16/10:11pm 25.2 23.5 19.8 72 3.5 SW 28 46 15 25 1013.9 1012.6 0.0
16/10:00pm 26.8 27.5 18.9 62 5.1 SSW 13 30 7 16 1014.2 1012.9 0.0
16/09:30pm 26.8 26.2 19.7 65 4.6 SSW 22 43 12 23 1013.7 1012.4 0.0
16/09:26pm 27.5 27.2 19.6 62 5.2 S 20 43 11 23 1013.2 - 0.0
16/09:00pm 30.9 27.5 17.6 45 8.5 SSE 32 50 17 27 1011.7 1010.5 0.0
16/08:52pm 31.9 31.8 19.5 47 8.2 ESE 19 46 10 25 1011.2 1010.0 0.0
16/08:30pm 32.8 35.8 22.0 53 7.4 NE 9 15 5 8 1009.8 1008.5 0.0
16/08:00pm 33.3 35.1 21.1 48 8.3 NE 13 19 7 10 1008.8 1007.5 0.0
16/07:30pm 33.6 35.2 20.7 46 8.7 NE 13 17 7 9 1008.5 1007.2 0.0
16/07:00pm 34.4 36.0 20.7 44 9.3 NE 13 17 7 9 1008.3 1007.0 0.0
16/06:30pm 35.5 38.0 21.7 44 9.5 NE 11 17 6 9 1007.8 1006.5 0.0
16/06:00pm 36.7 37.2 18.3 34 12.1 NNW 13 17 7 9 1007.8 1006.5 0.0
16/05:30pm 36.6 38.0 17.7 32 12.4 N 7 17 4 9 1007.8 1006.5 0.0
16/05:00pm 38.2 39.3 17.0 28 13.8 N 7 13 4 7 1007.7 1006.4 0.0
16/04:30pm 37.8 38.4 16.7 29 13.7 NNW 9 17 5 9 1007.9 1006.6 0.0
16/04:00pm 37.6 38.1 16.5 28 13.6 N 9 19 5 10 1008.1 1006.8 0.0
16/03:30pm 37.7 38.4 16.1 28 13.9 NNW 7 13 4 7 1008.7 1007.4 0.0
16/03:00pm 38.1 38.2 17.5 30 13.5 WNW 13 22 7 12 1009.3 1008.0 0.0
16/02:30pm 37.5 38.8 17.5 30 13.1 N 7 15 4 8 1009.9 1008.6 0.0
16/02:00pm 37.1 37.3 17.6 31 12.7 NNE 13 20 7 11 1010.5 1009.2 0.0
16/01:30pm 36.6 37.7 17.2 31 12.6 NNE 7 13 4 7 1011.0 1009.8 0.0
16/01:00pm 36.5 38.0 18.1 33 12.1 N 7 15 4 8 1011.5 1010.3 0.0
16/12:30pm 35.4 37.4 21.6 44 9.5 NNW 13 20 7 11 1012.1 1010.8 0.0
16/12:00pm 35.6 38.5 22.5 46 9.1 NW 11 17 6 9 1012.6 1011.3 0.0
16/11:30am 34.4 38.4 22.8 51 8.1 W 6 11 3 6 1013.0 1011.7 0.0
16/11:00am 33.8 37.9 22.9 53 7.6 W 6 13 3 7 1013.4 1012.1 0.0
16/10:30am 32.5 36.2 23.2 58 6.5 NNW 9 13 5 7 1013.7 1012.4 0.0
16/10:00am 31.9 35.4 22.9 59 6.2 NNW 9 13 5 7 1013.8 1012.5 0.0
16/09:30am 30.9 35.5 24.1 67 4.8 NNW 7 11 4 6 1014.0 1012.7 0.0
16/09:00am 30.5 35.0 24.6 70 4.2 NNW 9 13 5 7 1013.8 1012.5 0.0
16/08:30am 29.7 34.1 25.0 76 3.3 N 11 13 6 7 1013.4 1012.1 0.0
16/08:00am 29.0 33.9 25.2 80 2.7 N 9 13 5 7 1013.2 1011.9 0.0
16/07:30am 28.2 33.5 25.0 83 2.3 N 6 9 3 5 1012.9 1011.6 0.0
16/07:00am 27.7 32.4 24.3 82 2.4 NNW 7 11 4 6 1012.6 1011.3 0.0
16/06:30am 27.8 31.8 24.4 82 2.4 NNW 11 13 6 7 1012.2 1010.9 0.0
16/06:00am 27.8 31.9 24.0 80 2.6 WNW 9 11 5 6 1012.5 1011.2 0.0
16/05:30am 27.7 31.7 23.7 79 2.8 NNE 9 11 5 6 1012.1 1010.8 0.0
16/05:00am 27.5 31.2 23.3 78 2.9 NE 9 11 5 6 1011.9 1010.7 0.0
16/04:30am 27.5 32.4 23.7 80 2.6 ESE 4 9 2 5 1011.9 1010.7 0.0
16/04:00am 28.5 34.0 23.4 74 3.5 CALM 0 6 0 3 1012.1 1010.8 0.0
16/03:30am 29.2 33.4 23.4 71 4.0 WNW 7 11 4 6 1011.8 1010.6 0.0
16/03:00am 29.6 33.0 23.3 69 4.4 N 11 17 6 9 1011.2 1010.0 0.0
16/02:30am 29.2 33.0 22.4 66 4.6 NNE 6 9 3 5 1011.5 1010.3 0.0
16/02:00am 30.3 33.8 22.2 62 5.5 NNW 7 9 4 5 1011.9 1010.7 0.0
16/01:30am 29.7 34.0 22.7 66 4.8 N 4 9 2 5 1012.2 1010.9 0.0
16/01:00am 30.6 35.9 23.0 64 5.2 CALM 0 0 0 0 1012.4 1011.1 0.0
16/12:30am 30.3 36.3 24.2 70 4.3 CALM 0 6 0 3 1012.3 1011.0 0.0
16/12:00am 30.1 34.6 24.0 70 4.3 NNE 7 9 4 5 1012.5 1011.2 0.0
 
Date/Time
CST
Temp
°C
App
Temp
°C
Dew
Point
°C
Rel
Hum
%
Delta-T
°C
Wind Press
QNH
hPa
Press
MSL
hPa
Rain since
9am
mm
Dir  Spd
km/h
Gust
km/h
Spd
kts
Gust
kts
15/11:30pm 30.2 34.1 23.6 67 4.6 NE 9 11 5 6 1013.0 1011.7 0.0
15/11:00pm 31.1 34.6 23.5 64 5.3 N 11 15 6 8 1012.9 1011.6 0.0
15/10:30pm 31.3 35.6 23.7 64 5.3 N 7 11 4 6 1012.8 1011.5 0.0
15/10:00pm 31.0 36.1 22.6 61 5.8 CALM 0 0 0 0 1012.8 1011.5 0.0
15/09:30pm 31.3 35.4 22.3 58 6.2 N 4 9 2 5 1012.3 1011.0 0.0
15/09:00pm 31.7 35.7 22.1 56 6.6 E 4 9 2 5 1011.4 1010.2 0.0
15/08:30pm 32.1 33.6 21.3 53 7.3 NE 15 22 8 12 1010.8 1009.6 0.0
15/08:00pm 32.3 35.3 23.3 59 6.3 ENE 13 20 7 11 1010.5 1009.2 0.0
15/07:30pm 32.1 34.6 21.0 52 7.5 E 9 13 5 7 1010.1 1008.8 0.0
15/07:00pm 32.7 36.2 19.6 46 8.7 CALM 0 0 0 0 1009.3 1008.0 0.0
15/06:30pm 33.2 33.8 17.8 40 10.0 W 11 13 6 7 1009.0 1007.7 0.0
15/06:00pm 32.4 29.9 17.1 40 9.8 WNW 26 39 14 21 1009.1 1007.8 0.0
15/05:50pm 33.9 34.3 19.9 43 9.3 N 17 39 9 21 1009.0 1007.7 0.0
15/05:30pm 35.4 38.4 23.4 50 8.4 NNE 13 20 7 11 1008.4 1007.1 0.0
15/05:00pm 37.0 39.9 23.1 44 9.7 NE 13 20 7 11 1008.2 1006.9 0.0
15/04:30pm 37.1 40.0 23.2 45 9.8 NE 13 20 7 11 1008.3 1007.0 0.0
15/04:00pm 37.4 40.3 23.8 45 9.6 ENE 15 24 8 13 1008.8 1007.5 0.0
15/03:30pm 37.1 39.3 23.2 45 9.8 NE 17 24 9 13 1009.3 1008.0 0.0
15/03:00pm 37.1 39.8 23.5 45 9.6 NE 15 22 8 12 1009.8 1008.5 0.0
15/02:30pm 35.9 38.6 22.8 46 9.1 ENE 13 20 7 11 1010.1 1008.8 0.0
15/02:00pm 37.7 38.1 18.2 32 12.9 NNW 13 20 7 11 1010.2 1008.9 0.0
15/01:30pm 37.4 38.3 19.3 34 12.1 NNW 13 19 7 10 1010.4 1009.1 0.0
15/01:00pm 37.3 39.0 21.0 38 11.1 N 13 20 7 11 1010.8 1009.6 0.0
15/12:30pm 36.7 37.4 20.5 39 11.0 NNW 17 24 9 13 1011.2 1010.0 0.0
15/12:00pm 36.8 40.3 22.2 43 10.1 WNW 7 17 4 9 1011.5 1010.3 0.0
15/11:30am 35.7 39.1 23.3 48 8.7 N 11 17 6 9 1011.9 1010.7 0.0
15/11:00am 34.7 38.5 23.4 52 7.9 NNE 9 17 5 9 1012.4 1011.1 0.0
15/10:30am 33.8 38.2 24.4 58 6.6 N 9 13 5 7 1012.5 1011.2 0.0
15/10:00am 33.2 36.8 24.4 60 6.2 N 13 19 7 10 1012.7 1011.4 0.0
15/09:30am 32.4 35.5 23.6 59 6.1 NNE 13 17 7 9 1012.7 1011.4 0.0
15/09:00am 31.9 35.7 24.0 63 5.5 NNE 11 15 6 8 1012.3 1011.0 0.0
15/08:30am 31.1 34.5 24.0 66 5.0 N 13 15 7 8 1012.1 1010.8 0.0
15/08:00am 30.3 34.1 24.0 69 4.4 N 11 15 6 8 1011.7 1010.5 0.0
15/07:30am 29.5 33.6 23.9 72 3.9 N 9 13 5 7 1011.4 1010.2 0.0
15/07:00am 28.8 32.6 24.1 76 3.3 NNE 11 15 6 8 1010.9 1009.7 0.0
15/06:30am 28.9 32.8 23.6 73 3.7 N 9 11 5 6 1010.3 1009.0 0.0
15/06:00am 30.2 33.6 23.4 67 4.7 NNW 11 13 6 7 1009.9 1008.6 0.0
15/05:30am 30.0 34.2 23.4 67 4.6 NNW 7 15 4 8 1009.8 1008.5 0.0
15/05:00am 30.4 34.3 23.6 67 4.7 NW 9 13 5 7 1009.7 1008.4 0.0
15/04:30am 30.2 33.5 23.9 69 4.4 NW 13 15 7 8 1009.6 1008.3 0.0
15/04:00am 29.4 34.2 24.5 75 3.4 NW 7 9 4 5 1009.6 1008.3 0.0
15/03:30am 30.0 34.3 24.2 71 4.1 NW 9 11 5 6 1009.7 1008.4 0.0
15/03:00am 30.4 34.2 24.1 69 4.4 N 11 15 6 8 1009.8 1008.5 0.0
15/02:30am 30.5 34.4 24.2 69 4.4 N 11 15 6 8 1010.0 1008.7 0.0
15/02:00am 30.8 34.3 24.2 68 4.6 NNW 13 19 7 10 1010.2 1008.9 0.0
15/01:30am 31.3 34.2 23.9 64 5.2 N 15 20 8 11 1010.0 1008.7 0.0
15/01:00am 31.5 34.4 24.4 66 5.0 N 17 20 9 11 1010.2 1008.9 0.0

Other Formats:

Comma delimited format used in spreadsheet applications
http://www.bom.gov.au/fwo/IDD60801/IDD60801.94217.axf

JavaScript Object Notation format (JSON) in row-major order
http://www.bom.gov.au/fwo/IDD60801/IDD60801.94217.json